sensor_id;sensor_type;location;lat;lon;timestamp;temperature;humidity
31967;DHT22;18496;52.042;6.812;2023-07-13T00:00:43;21.20;91.10
31967;DHT22;18496;52.042;6.812;2023-07-13T00:02:47;21.20;91.20
31967;DHT22;18496;52.042;6.812;2023-07-13T00:04:51;21.20;91.40
31967;DHT22;18496;52.042;6.812;2023-07-13T00:06:55;21.20;91.50
31967;DHT22;18496;52.042;6.812;2023-07-13T00:08:59;21.20;91.40
31967;DHT22;18496;52.042;6.812;2023-07-13T00:11:03;21.20;91.10
31967;DHT22;18496;52.042;6.812;2023-07-13T00:13:08;21.30;91.00
31967;DHT22;18496;52.042;6.812;2023-07-13T00:15:19;21.20;90.90
31967;DHT22;18496;52.042;6.812;2023-07-13T00:17:27;21.20;91.20
31967;DHT22;18496;52.042;6.812;2023-07-13T00:19:31;21.10;91.00
31967;DHT22;18496;52.042;6.812;2023-07-13T00:21:34;21.10;91.30
31967;DHT22;18496;52.042;6.812;2023-07-13T00:23:40;21.10;91.20
31967;DHT22;18496;52.042;6.812;2023-07-13T00:25:44;21.10;91.20
31967;DHT22;18496;52.042;6.812;2023-07-13T00:27:48;21.00;91.40
31967;DHT22;18496;52.042;6.812;2023-07-13T00:29:52;21.00;91.70
31967;DHT22;18496;52.042;6.812;2023-07-13T00:31:57;21.00;91.60
31967;DHT22;18496;52.042;6.812;2023-07-13T00:34:01;21.00;91.70
31967;DHT22;18496;52.042;6.812;2023-07-13T00:36:05;20.90;91.70
31967;DHT22;18496;52.042;6.812;2023-07-13T00:38:10;20.80;91.70
31967;DHT22;18496;52.042;6.812;2023-07-13T00:40:18;20.80;91.80
31967;DHT22;18496;52.042;6.812;2023-07-13T00:42:23;20.70;91.90
31967;DHT22;18496;52.042;6.812;2023-07-13T00:44:27;20.70;92.10
31967;DHT22;18496;52.042;6.812;2023-07-13T00:46:34;20.70;92.10
31967;DHT22;18496;52.042;6.812;2023-07-13T00:48:40;20.60;92.30
31967;DHT22;18496;52.042;6.812;2023-07-13T00:50:47;20.50;92.40
31967;DHT22;18496;52.042;6.812;2023-07-13T00:52:54;20.50;92.50
31967;DHT22;18496;52.042;6.812;2023-07-13T00:55:01;20.50;92.60
31967;DHT22;18496;52.042;6.812;2023-07-13T00:57:08;20.50;92.60
31967;DHT22;18496;52.042;6.812;2023-07-13T00:59:15;20.40;92.60
31967;DHT22;18496;52.042;6.812;2023-07-13T01:01:20;20.40;92.80
31967;DHT22;18496;52.042;6.812;2023-07-13T01:03:24;20.40;92.80
31967;DHT22;18496;52.042;6.812;2023-07-13T01:05:28;20.40;92.50
31967;DHT22;18496;52.042;6.812;2023-07-13T01:07:32;20.20;92.70
31967;DHT22;18496;52.042;6.812;2023-07-13T01:09:36;20.20;92.70
31967;DHT22;18496;52.042;6.812;2023-07-13T01:11:40;20.20;92.90
31967;DHT22;18496;52.042;6.812;2023-07-13T01:13:44;20.20;92.70
31967;DHT22;18496;52.042;6.812;2023-07-13T01:15:49;20.20;92.60
31967;DHT22;18496;52.042;6.812;2023-07-13T01:17:54;20.20;92.60
31967;DHT22;18496;52.042;6.812;2023-07-13T01:19:59;20.20;92.70
31967;DHT22;18496;52.042;6.812;2023-07-13T01:22:06;20.10;92.90
31967;DHT22;18496;52.042;6.812;2023-07-13T01:24:12;20.20;92.90
31967;DHT22;18496;52.042;6.812;2023-07-13T01:26:15;20.20;92.90
31967;DHT22;18496;52.042;6.812;2023-07-13T01:28:19;20.10;92.90
31967;DHT22;18496;52.042;6.812;2023-07-13T01:30:23;20.10;93.20
31967;DHT22;18496;52.042;6.812;2023-07-13T01:32:30;20.10;93.10
31967;DHT22;18496;52.042;6.812;2023-07-13T01:34:37;20.10;93.00
31967;DHT22;18496;52.042;6.812;2023-07-13T01:36:41;20.00;93.20
31967;DHT22;18496;52.042;6.812;2023-07-13T01:38:45;20.00;93.30
31967;DHT22;18496;52.042;6.812;2023-07-13T01:40:52;20.00;93.30
31967;DHT22;18496;52.042;6.812;2023-07-13T01:42:57;19.90;93.30
31967;DHT22;18496;52.042;6.812;2023-07-13T01:45:01;19.80;93.30
31967;DHT22;18496;52.042;6.812;2023-07-13T01:47:08;19.70;93.40
31967;DHT22;18496;52.042;6.812;2023-07-13T01:49:12;19.80;93.60
31967;DHT22;18496;52.042;6.812;2023-07-13T01:51:16;19.70;93.40
31967;DHT22;18496;52.042;6.812;2023-07-13T01:53:22;19.70;93.60
31967;DHT22;18496;52.042;6.812;2023-07-13T01:55:26;19.60;93.60
31967;DHT22;18496;52.042;6.812;2023-07-13T01:57:30;19.60;93.70
31967;DHT22;18496;52.042;6.812;2023-07-13T01:59:33;19.60;93.90
31967;DHT22;18496;52.042;6.812;2023-07-13T02:01:37;19.50;93.80
31967;DHT22;18496;52.042;6.812;2023-07-13T02:03:41;19.50;93.60
31967;DHT22;18496;52.042;6.812;2023-07-13T02:05:45;19.50;93.60
31967;DHT22;18496;52.042;6.812;2023-07-13T02:07:49;19.40;93.70
31967;DHT22;18496;52.042;6.812;2023-07-13T02:09:52;19.50;94.00
31967;DHT22;18496;52.042;6.812;2023-07-13T02:11:57;19.40;93.80
31967;DHT22;18496;52.042;6.812;2023-07-13T02:14:01;19.50;93.90
31967;DHT22;18496;52.042;6.812;2023-07-13T02:16:05;19.50;93.80
31967;DHT22;18496;52.042;6.812;2023-07-13T02:18:10;19.50;93.70
31967;DHT22;18496;52.042;6.812;2023-07-13T02:20:14;19.50;93.70
31967;DHT22;18496;52.042;6.812;2023-07-13T02:22:18;19.50;93.80
31967;DHT22;18496;52.042;6.812;2023-07-13T02:24:21;19.40;93.90
31967;DHT22;18496;52.042;6.812;2023-07-13T02:26:26;19.50;93.70
31967;DHT22;18496;52.042;6.812;2023-07-13T02:28:31;19.40;93.70
31967;DHT22;18496;52.042;6.812;2023-07-13T02:30:35;19.40;93.80
31967;DHT22;18496;52.042;6.812;2023-07-13T02:32:39;19.30;93.90
31967;DHT22;18496;52.042;6.812;2023-07-13T02:34:43;19.40;93.80
31967;DHT22;18496;52.042;6.812;2023-07-13T02:36:47;19.30;93.80
31967;DHT22;18496;52.042;6.812;2023-07-13T02:38:51;19.30;93.90
31967;DHT22;18496;52.042;6.812;2023-07-13T02:40:55;19.40;93.90
31967;DHT22;18496;52.042;6.812;2023-07-13T02:42:59;19.40;93.90
31967;DHT22;18496;52.042;6.812;2023-07-13T02:45:03;19.30;93.80
31967;DHT22;18496;52.042;6.812;2023-07-13T02:47:07;19.30;93.80
31967;DHT22;18496;52.042;6.812;2023-07-13T02:49:11;19.30;94.00
31967;DHT22;18496;52.042;6.812;2023-07-13T02:51:15;19.30;94.20
31967;DHT22;18496;52.042;6.812;2023-07-13T02:53:19;19.30;94.10
31967;DHT22;18496;52.042;6.812;2023-07-13T02:55:22;19.30;94.00
31967;DHT22;18496;52.042;6.812;2023-07-13T02:57:26;19.20;93.90
31967;DHT22;18496;52.042;6.812;2023-07-13T02:59:31;19.30;94.10
31967;DHT22;18496;52.042;6.812;2023-07-13T03:01:36;19.20;94.20
31967;DHT22;18496;52.042;6.812;2023-07-13T03:03:40;19.10;94.20
31967;DHT22;18496;52.042;6.812;2023-07-13T03:05:45;19.10;94.50
31967;DHT22;18496;52.042;6.812;2023-07-13T03:07:55;19.10;94.50
31967;DHT22;18496;52.042;6.812;2023-07-13T03:09:59;19.10;94.40
31967;DHT22;18496;52.042;6.812;2023-07-13T03:12:11;19.10;94.90
31967;DHT22;18496;52.042;6.812;2023-07-13T03:14:15;19.10;94.60
31967;DHT22;18496;52.042;6.812;2023-07-13T03:16:20;19.00;94.70
31967;DHT22;18496;52.042;6.812;2023-07-13T03:18:27;19.00;94.70
31967;DHT22;18496;52.042;6.812;2023-07-13T03:20:34;19.00;94.80
31967;DHT22;18496;52.042;6.812;2023-07-13T03:22:39;19.00;94.80
31967;DHT22;18496;52.042;6.812;2023-07-13T03:24:43;18.90;94.90
31967;DHT22;18496;52.042;6.812;2023-07-13T03:26:47;18.90;95.00
31967;DHT22;18496;52.042;6.812;2023-07-13T03:28:50;18.80;95.00
31967;DHT22;18496;52.042;6.812;2023-07-13T03:31:10;18.80;95.10
31967;DHT22;18496;52.042;6.812;2023-07-13T03:33:14;18.70;95.40
31967;DHT22;18496;52.042;6.812;2023-07-13T03:35:17;18.60;95.60
31967;DHT22;18496;52.042;6.812;2023-07-13T03:37:22;18.60;95.70
31967;DHT22;18496;52.042;6.812;2023-07-13T03:39:25;18.70;95.70
31967;DHT22;18496;52.042;6.812;2023-07-13T03:41:33;18.70;95.80
31967;DHT22;18496;52.042;6.812;2023-07-13T03:43:37;18.60;95.90
31967;DHT22;18496;52.042;6.812;2023-07-13T03:45:41;18.60;96.10
31967;DHT22;18496;52.042;6.812;2023-07-13T03:47:45;18.60;96.00
31967;DHT22;18496;52.042;6.812;2023-07-13T03:49:49;18.60;96.10
31967;DHT22;18496;52.042;6.812;2023-07-13T03:51:52;18.50;96.50
31967;DHT22;18496;52.042;6.812;2023-07-13T03:53:56;18.50;96.50
31967;DHT22;18496;52.042;6.812;2023-07-13T03:56:00;18.50;96.50
31967;DHT22;18496;52.042;6.812;2023-07-13T03:58:25;18.60;96.50
31967;DHT22;18496;52.042;6.812;2023-07-13T04:00:31;18.60;96.50
31967;DHT22;18496;52.042;6.812;2023-07-13T04:02:34;18.60;96.50
31967;DHT22;18496;52.042;6.812;2023-07-13T04:04:39;18.50;96.70
31967;DHT22;18496;52.042;6.812;2023-07-13T04:06:44;18.50;96.80
31967;DHT22;18496;52.042;6.812;2023-07-13T04:08:53;18.50;96.80
31967;DHT22;18496;52.042;6.812;2023-07-13T04:10:58;18.50;96.80
31967;DHT22;18496;52.042;6.812;2023-07-13T04:13:05;18.50;97.10
31967;DHT22;18496;52.042;6.812;2023-07-13T04:15:09;18.50;97.10
31967;DHT22;18496;52.042;6.812;2023-07-13T04:17:13;18.50;97.20
31967;DHT22;18496;52.042;6.812;2023-07-13T04:19:17;18.40;97.30
31967;DHT22;18496;52.042;6.812;2023-07-13T04:21:21;18.50;97.50
31967;DHT22;18496;52.042;6.812;2023-07-13T04:23:25;18.50;97.50
31967;DHT22;18496;52.042;6.812;2023-07-13T04:25:29;18.50;97.60
31967;DHT22;18496;52.042;6.812;2023-07-13T04:27:33;18.60;97.60
31967;DHT22;18496;52.042;6.812;2023-07-13T04:29:36;18.60;97.50
31967;DHT22;18496;52.042;6.812;2023-07-13T04:31:40;18.60;97.50
31967;DHT22;18496;52.042;6.812;2023-07-13T04:33:44;18.60;97.50
31967;DHT22;18496;52.042;6.812;2023-07-13T04:35:52;18.50;97.60
31967;DHT22;18496;52.042;6.812;2023-07-13T04:37:59;18.50;97.80
31967;DHT22;18496;52.042;6.812;2023-07-13T04:40:03;18.50;97.80
31967;DHT22;18496;52.042;6.812;2023-07-13T04:42:07;18.60;97.90
31967;DHT22;18496;52.042;6.812;2023-07-13T04:44:11;18.60;97.90
31967;DHT22;18496;52.042;6.812;2023-07-13T04:46:16;18.50;98.00
31967;DHT22;18496;52.042;6.812;2023-07-13T04:48:24;18.50;98.10
31967;DHT22;18496;52.042;6.812;2023-07-13T04:50:29;18.50;98.20
31967;DHT22;18496;52.042;6.812;2023-07-13T04:52:32;18.50;98.40
31967;DHT22;18496;52.042;6.812;2023-07-13T04:54:36;18.40;98.50
31967;DHT22;18496;52.042;6.812;2023-07-13T04:56:40;18.40;98.90
31967;DHT22;18496;52.042;6.812;2023-07-13T04:58:44;18.30;99.10
31967;DHT22;18496;52.042;6.812;2023-07-13T05:00:48;18.30;99.20
31967;DHT22;18496;52.042;6.812;2023-07-13T05:02:57;18.30;99.40
31967;DHT22;18496;52.042;6.812;2023-07-13T05:05:02;18.30;99.70
31967;DHT22;18496;52.042;6.812;2023-07-13T05:07:07;18.30;99.90
31967;DHT22;18496;52.042;6.812;2023-07-13T05:09:10;18.20;99.90
31967;DHT22;18496;52.042;6.812;2023-07-13T05:11:17;18.20;99.90
31967;DHT22;18496;52.042;6.812;2023-07-13T05:13:22;18.20;99.90
31967;DHT22;18496;52.042;6.812;2023-07-13T05:15:27;18.20;99.90
31967;DHT22;18496;52.042;6.812;2023-07-13T05:17:30;18.20;99.90
31967;DHT22;18496;52.042;6.812;2023-07-13T05:19:34;18.20;99.90
31967;DHT22;18496;52.042;6.812;2023-07-13T05:21:38;18.20;99.90
31967;DHT22;18496;52.042;6.812;2023-07-13T05:23:42;18.20;99.90
31967;DHT22;18496;52.042;6.812;2023-07-13T05:25:45;18.20;99.90
31967;DHT22;18496;52.042;6.812;2023-07-13T05:27:49;18.30;99.90
31967;DHT22;18496;52.042;6.812;2023-07-13T05:29:53;18.20;99.90
31967;DHT22;18496;52.042;6.812;2023-07-13T05:31:56;18.20;99.90
31967;DHT22;18496;52.042;6.812;2023-07-13T05:34:00;18.20;99.90
31967;DHT22;18496;52.042;6.812;2023-07-13T05:36:04;18.20;99.90
31967;DHT22;18496;52.042;6.812;2023-07-13T05:38:08;18.20;99.90
31967;DHT22;18496;52.042;6.812;2023-07-13T05:40:12;18.20;99.90
31967;DHT22;18496;52.042;6.812;2023-07-13T05:42:16;18.20;99.90
31967;DHT22;18496;52.042;6.812;2023-07-13T05:44:19;18.30;99.90
31967;DHT22;18496;52.042;6.812;2023-07-13T05:46:23;18.20;99.90
31967;DHT22;18496;52.042;6.812;2023-07-13T05:48:27;18.30;99.90
31967;DHT22;18496;52.042;6.812;2023-07-13T05:50:31;18.30;99.90
31967;DHT22;18496;52.042;6.812;2023-07-13T05:52:35;18.40;99.90
31967;DHT22;18496;52.042;6.812;2023-07-13T05:54:39;18.40;99.90
31967;DHT22;18496;52.042;6.812;2023-07-13T05:56:43;18.40;99.90
31967;DHT22;18496;52.042;6.812;2023-07-13T05:58:48;18.30;99.90
31967;DHT22;18496;52.042;6.812;2023-07-13T06:01:05;18.40;99.90
31967;DHT22;18496;52.042;6.812;2023-07-13T06:03:09;18.40;99.90
31967;DHT22;18496;52.042;6.812;2023-07-13T06:05:13;18.30;99.90
31967;DHT22;18496;52.042;6.812;2023-07-13T06:07:17;18.40;99.90
31967;DHT22;18496;52.042;6.812;2023-07-13T06:09:21;18.40;99.90
31967;DHT22;18496;52.042;6.812;2023-07-13T06:11:26;18.40;99.90
31967;DHT22;18496;52.042;6.812;2023-07-13T06:13:31;18.40;99.90
31967;DHT22;18496;52.042;6.812;2023-07-13T06:15:34;18.50;99.90
31967;DHT22;18496;52.042;6.812;2023-07-13T06:17:38;18.50;99.90
31967;DHT22;18496;52.042;6.812;2023-07-13T06:19:42;18.60;99.90
31967;DHT22;18496;52.042;6.812;2023-07-13T06:21:46;18.60;99.90
31967;DHT22;18496;52.042;6.812;2023-07-13T06:23:51;18.50;99.90
31967;DHT22;18496;52.042;6.812;2023-07-13T06:25:54;18.60;99.90
31967;DHT22;18496;52.042;6.812;2023-07-13T06:27:58;18.60;99.90
31967;DHT22;18496;52.042;6.812;2023-07-13T06:30:02;18.60;99.90
31967;DHT22;18496;52.042;6.812;2023-07-13T06:32:07;18.60;99.90
31967;DHT22;18496;52.042;6.812;2023-07-13T06:34:10;18.60;99.90
31967;DHT22;18496;52.042;6.812;2023-07-13T06:36:14;18.70;99.90
31967;DHT22;18496;52.042;6.812;2023-07-13T06:38:18;18.70;99.90
31967;DHT22;18496;52.042;6.812;2023-07-13T06:40:22;18.70;99.90
31967;DHT22;18496;52.042;6.812;2023-07-13T06:42:26;18.90;99.90
31967;DHT22;18496;52.042;6.812;2023-07-13T06:44:29;18.90;99.90
31967;DHT22;18496;52.042;6.812;2023-07-13T06:46:33;18.90;99.90
31967;DHT22;18496;52.042;6.812;2023-07-13T06:48:37;18.90;99.90
31967;DHT22;18496;52.042;6.812;2023-07-13T06:50:41;18.90;99.90
31967;DHT22;18496;52.042;6.812;2023-07-13T06:52:45;18.80;99.90
31967;DHT22;18496;52.042;6.812;2023-07-13T06:54:49;18.90;99.90
31967;DHT22;18496;52.042;6.812;2023-07-13T06:56:52;18.90;99.90
31967;DHT22;18496;52.042;6.812;2023-07-13T06:58:56;18.90;99.90
31967;DHT22;18496;52.042;6.812;2023-07-13T07:01:00;18.90;99.90
31967;DHT22;18496;52.042;6.812;2023-07-13T07:03:04;18.90;99.90
31967;DHT22;18496;52.042;6.812;2023-07-13T07:05:07;18.90;99.90
31967;DHT22;18496;52.042;6.812;2023-07-13T07:07:11;18.90;99.90
31967;DHT22;18496;52.042;6.812;2023-07-13T07:09:15;18.90;99.90
31967;DHT22;18496;52.042;6.812;2023-07-13T07:11:25;18.80;99.90
31967;DHT22;18496;52.042;6.812;2023-07-13T07:13:28;18.80;99.90
31967;DHT22;18496;52.042;6.812;2023-07-13T07:15:34;18.80;99.90
31967;DHT22;18496;52.042;6.812;2023-07-13T07:17:38;18.90;99.90
31967;DHT22;18496;52.042;6.812;2023-07-13T07:19:42;18.90;99.90
31967;DHT22;18496;52.042;6.812;2023-07-13T07:21:46;19.00;99.90
31967;DHT22;18496;52.042;6.812;2023-07-13T07:23:51;19.00;99.90
31967;DHT22;18496;52.042;6.812;2023-07-13T07:25:54;19.10;99.90
31967;DHT22;18496;52.042;6.812;2023-07-13T07:27:58;19.20;99.90
31967;DHT22;18496;52.042;6.812;2023-07-13T07:30:03;19.20;99.90
31967;DHT22;18496;52.042;6.812;2023-07-13T07:32:07;19.20;99.90
31967;DHT22;18496;52.042;6.812;2023-07-13T07:34:10;19.30;99.90
31967;DHT22;18496;52.042;6.812;2023-07-13T07:36:14;19.30;99.90
31967;DHT22;18496;52.042;6.812;2023-07-13T07:38:18;19.30;99.90
31967;DHT22;18496;52.042;6.812;2023-07-13T07:40:22;19.30;99.90
31967;DHT22;18496;52.042;6.812;2023-07-13T07:42:26;19.30;99.90
31967;DHT22;18496;52.042;6.812;2023-07-13T07:44:31;19.30;99.90
31967;DHT22;18496;52.042;6.812;2023-07-13T07:46:35;19.30;99.90
31967;DHT22;18496;52.042;6.812;2023-07-13T07:48:38;19.30;99.90
31967;DHT22;18496;52.042;6.812;2023-07-13T07:50:42;19.30;99.90
31967;DHT22;18496;52.042;6.812;2023-07-13T07:52:46;19.30;99.90
31967;DHT22;18496;52.042;6.812;2023-07-13T07:54:50;19.30;99.90
31967;DHT22;18496;52.042;6.812;2023-07-13T07:56:54;19.30;99.90
31967;DHT22;18496;52.042;6.812;2023-07-13T07:58:58;19.40;99.90
31967;DHT22;18496;52.042;6.812;2023-07-13T08:01:06;19.50;99.90
31967;DHT22;18496;52.042;6.812;2023-07-13T08:03:10;19.50;99.90
31967;DHT22;18496;52.042;6.812;2023-07-13T08:05:14;19.60;99.90
31967;DHT22;18496;52.042;6.812;2023-07-13T08:07:17;19.60;99.90
31967;DHT22;18496;52.042;6.812;2023-07-13T08:09:21;19.60;99.90
31967;DHT22;18496;52.042;6.812;2023-07-13T08:11:25;19.60;99.90
31967;DHT22;18496;52.042;6.812;2023-07-13T08:13:29;19.60;99.90
31967;DHT22;18496;52.042;6.812;2023-07-13T08:15:33;19.60;99.90
31967;DHT22;18496;52.042;6.812;2023-07-13T08:17:36;19.70;99.90
31967;DHT22;18496;52.042;6.812;2023-07-13T08:19:40;19.70;99.90
31967;DHT22;18496;52.042;6.812;2023-07-13T08:21:44;19.80;99.90
31967;DHT22;18496;52.042;6.812;2023-07-13T08:23:47;19.80;99.90
31967;DHT22;18496;52.042;6.812;2023-07-13T08:25:52;19.90;99.90
31967;DHT22;18496;52.042;6.812;2023-07-13T08:27:56;19.90;99.90
31967;DHT22;18496;52.042;6.812;2023-07-13T08:30:00;20.00;99.90
31967;DHT22;18496;52.042;6.812;2023-07-13T08:32:06;20.00;99.90
31967;DHT22;18496;52.042;6.812;2023-07-13T08:34:12;20.00;99.90
31967;DHT22;18496;52.042;6.812;2023-07-13T08:36:18;20.00;99.90
31967;DHT22;18496;52.042;6.812;2023-07-13T08:38:22;20.00;99.90
31967;DHT22;18496;52.042;6.812;2023-07-13T08:40:26;20.00;99.90
31967;DHT22;18496;52.042;6.812;2023-07-13T08:42:39;20.00;99.90
31967;DHT22;18496;52.042;6.812;2023-07-13T08:45:17;20.10;99.90
31967;DHT22;18496;52.042;6.812;2023-07-13T08:47:23;20.10;99.90
31967;DHT22;18496;52.042;6.812;2023-07-13T08:49:27;20.20;99.90
31967;DHT22;18496;52.042;6.812;2023-07-13T08:51:51;20.30;99.90
31967;DHT22;18496;52.042;6.812;2023-07-13T08:54:03;20.20;99.90
31967;DHT22;18496;52.042;6.812;2023-07-13T08:56:17;20.30;99.90
31967;DHT22;18496;52.042;6.812;2023-07-13T08:58:22;20.30;99.90
31967;DHT22;18496;52.042;6.812;2023-07-13T09:03:05;20.30;99.90
31967;DHT22;18496;52.042;6.812;2023-07-13T09:05:37;20.40;99.90
31967;DHT22;18496;52.042;6.812;2023-07-13T09:08:01;20.30;99.90
31967;DHT22;18496;52.042;6.812;2023-07-13T09:14:43;20.30;99.90
31967;DHT22;18496;52.042;6.812;2023-07-13T09:16:49;20.20;99.90
31967;DHT22;18496;52.042;6.812;2023-07-13T09:18:56;20.30;99.90
31967;DHT22;18496;52.042;6.812;2023-07-13T09:21:08;20.30;99.90
31967;DHT22;18496;52.042;6.812;2023-07-13T09:23:16;20.20;99.90
31967;DHT22;18496;52.042;6.812;2023-07-13T09:25:31;20.20;99.90
31967;DHT22;18496;52.042;6.812;2023-07-13T09:27:39;20.10;99.90
31967;DHT22;18496;52.042;6.812;2023-07-13T09:32:21;20.20;99.90
31967;DHT22;18496;52.042;6.812;2023-07-13T09:34:28;20.20;99.90
31967;DHT22;18496;52.042;6.812;2023-07-13T09:36:34;20.30;99.90
31967;DHT22;18496;52.042;6.812;2023-07-13T09:38:40;20.30;99.90
31967;DHT22;18496;52.042;6.812;2023-07-13T09:42:58;20.60;99.90
31967;DHT22;18496;52.042;6.812;2023-07-13T09:45:02;20.60;99.90
31967;DHT22;18496;52.042;6.812;2023-07-13T09:47:18;20.60;99.90
31967;DHT22;18496;52.042;6.812;2023-07-13T09:49:27;20.70;99.90
31967;DHT22;18496;52.042;6.812;2023-07-13T09:51:31;20.80;99.90
31967;DHT22;18496;52.042;6.812;2023-07-13T09:53:36;20.90;99.90
31967;DHT22;18496;52.042;6.812;2023-07-13T09:55:42;21.00;99.90
31967;DHT22;18496;52.042;6.812;2023-07-13T09:57:47;21.00;99.90
31967;DHT22;18496;52.042;6.812;2023-07-13T09:59:54;21.10;99.90
31967;DHT22;18496;52.042;6.812;2023-07-13T10:02:00;21.10;99.90
31967;DHT22;18496;52.042;6.812;2023-07-13T10:04:13;21.20;99.90
31967;DHT22;18496;52.042;6.812;2023-07-13T10:06:22;21.30;99.90
31967;DHT22;18496;52.042;6.812;2023-07-13T10:08:28;21.40;99.90
31967;DHT22;18496;52.042;6.812;2023-07-13T10:10:34;21.30;99.90
31967;DHT22;18496;52.042;6.812;2023-07-13T10:12:40;21.40;99.90
31967;DHT22;18496;52.042;6.812;2023-07-13T10:14:44;21.40;99.90
31967;DHT22;18496;52.042;6.812;2023-07-13T10:16:58;21.50;99.90
31967;DHT22;18496;52.042;6.812;2023-07-13T10:19:21;21.50;99.90
31967;DHT22;18496;52.042;6.812;2023-07-13T10:21:38;21.50;99.90
31967;DHT22;18496;52.042;6.812;2023-07-13T10:23:43;21.50;99.70
31967;DHT22;18496;52.042;6.812;2023-07-13T10:25:48;21.50;99.90
31967;DHT22;18496;52.042;6.812;2023-07-13T10:27:55;21.60;99.60
31967;DHT22;18496;52.042;6.812;2023-07-13T10:30:09;21.60;99.50
31967;DHT22;18496;52.042;6.812;2023-07-13T10:32:15;21.60;99.40
31967;DHT22;18496;52.042;6.812;2023-07-13T10:34:19;21.70;99.50
31967;DHT22;18496;52.042;6.812;2023-07-13T10:36:38;21.80;99.50
31967;DHT22;18496;52.042;6.812;2023-07-13T10:38:45;21.80;98.50
31967;DHT22;18496;52.042;6.812;2023-07-13T10:40:56;21.90;98.00
31967;DHT22;18496;52.042;6.812;2023-07-13T10:43:06;21.90;97.70
31967;DHT22;18496;52.042;6.812;2023-07-13T10:45:14;21.90;97.20
31967;DHT22;18496;52.042;6.812;2023-07-13T10:47:19;21.80;96.50
31967;DHT22;18496;52.042;6.812;2023-07-13T10:49:23;21.90;96.50
31967;DHT22;18496;52.042;6.812;2023-07-13T10:51:28;21.90;96.70
31967;DHT22;18496;52.042;6.812;2023-07-13T10:53:35;22.00;97.00
31967;DHT22;18496;52.042;6.812;2023-07-13T10:56:00;22.10;97.00
31967;DHT22;18496;52.042;6.812;2023-07-13T11:00:25;22.30;96.40
31967;DHT22;18496;52.042;6.812;2023-07-13T11:02:30;22.40;96.20
31967;DHT22;18496;52.042;6.812;2023-07-13T11:04:44;22.40;96.30
31967;DHT22;18496;52.042;6.812;2023-07-13T11:06:57;22.40;96.40
31967;DHT22;18496;52.042;6.812;2023-07-13T11:11:43;22.20;98.90
31967;DHT22;18496;52.042;6.812;2023-07-13T11:15:53;21.80;99.90
31967;DHT22;18496;52.042;6.812;2023-07-13T11:17:57;21.60;99.90
31967;DHT22;18496;52.042;6.812;2023-07-13T11:22:19;21.50;99.90
31967;DHT22;18496;52.042;6.812;2023-07-13T11:24:29;21.50;99.90
31967;DHT22;18496;52.042;6.812;2023-07-13T11:26:41;21.60;99.90
31967;DHT22;18496;52.042;6.812;2023-07-13T11:28:49;21.70;99.90
31967;DHT22;18496;52.042;6.812;2023-07-13T11:35:19;22.10;99.90
31967;DHT22;18496;52.042;6.812;2023-07-13T11:37:26;22.20;98.30
31967;DHT22;18496;52.042;6.812;2023-07-13T11:39:37;22.30;96.80
31967;DHT22;18496;52.042;6.812;2023-07-13T11:41:50;22.40;96.20
31967;DHT22;18496;52.042;6.812;2023-07-13T11:44:02;22.50;96.10
31967;DHT22;18496;52.042;6.812;2023-07-13T11:46:17;22.60;96.00
31967;DHT22;18496;52.042;6.812;2023-07-13T11:48:27;22.60;95.00
31967;DHT22;18496;52.042;6.812;2023-07-13T11:50:31;22.80;95.40
31967;DHT22;18496;52.042;6.812;2023-07-13T11:52:36;22.90;95.70
31967;DHT22;18496;52.042;6.812;2023-07-13T11:54:55;23.00;95.30
31967;DHT22;18496;52.042;6.812;2023-07-13T11:57:14;23.10;95.00
31967;DHT22;18496;52.042;6.812;2023-07-13T11:59:22;23.10;93.80
31967;DHT22;18496;52.042;6.812;2023-07-13T12:01:31;23.10;92.90
31967;DHT22;18496;52.042;6.812;2023-07-13T12:03:40;23.10;92.60
31967;DHT22;18496;52.042;6.812;2023-07-13T12:06:32;23.10;92.60
31967;DHT22;18496;52.042;6.812;2023-07-13T12:08:39;23.10;92.30
31967;DHT22;18496;52.042;6.812;2023-07-13T12:10:43;23.10;92.30
31967;DHT22;18496;52.042;6.812;2023-07-13T12:12:56;23.10;92.60
31967;DHT22;18496;52.042;6.812;2023-07-13T12:15:00;23.10;92.50
31967;DHT22;18496;52.042;6.812;2023-07-13T12:17:11;23.20;92.70
31967;DHT22;18496;52.042;6.812;2023-07-13T12:19:26;23.30;92.40
31967;DHT22;18496;52.042;6.812;2023-07-13T12:21:33;23.30;92.40
31967;DHT22;18496;52.042;6.812;2023-07-13T12:23:38;23.30;92.20
31967;DHT22;18496;52.042;6.812;2023-07-13T12:25:42;23.20;92.30
31967;DHT22;18496;52.042;6.812;2023-07-13T12:27:51;23.10;92.60
31967;DHT22;18496;52.042;6.812;2023-07-13T12:30:05;23.00;92.60
31967;DHT22;18496;52.042;6.812;2023-07-13T12:32:09;23.00;92.60
31967;DHT22;18496;52.042;6.812;2023-07-13T12:34:17;23.00;92.90
31967;DHT22;18496;52.042;6.812;2023-07-13T12:36:22;23.20;93.20
31967;DHT22;18496;52.042;6.812;2023-07-13T12:38:25;23.30;91.70
31967;DHT22;18496;52.042;6.812;2023-07-13T12:40:33;23.40;91.30
31967;DHT22;18496;52.042;6.812;2023-07-13T12:42:39;23.30;91.30
31967;DHT22;18496;52.042;6.812;2023-07-13T12:44:43;23.30;91.50
31967;DHT22;18496;52.042;6.812;2023-07-13T12:47:05;23.20;91.90
31967;DHT22;18496;52.042;6.812;2023-07-13T12:49:13;23.10;92.10
31967;DHT22;18496;52.042;6.812;2023-07-13T12:51:22;23.00;92.60
31967;DHT22;18496;52.042;6.812;2023-07-13T12:53:30;22.90;92.60
31967;DHT22;18496;52.042;6.812;2023-07-13T12:55:50;22.80;92.90
31967;DHT22;18496;52.042;6.812;2023-07-13T12:57:58;22.70;93.40
31967;DHT22;18496;52.042;6.812;2023-07-13T13:00:04;22.60;93.10
31967;DHT22;18496;52.042;6.812;2023-07-13T13:02:30;22.50;93.30
31967;DHT22;18496;52.042;6.812;2023-07-13T13:04:39;22.40;93.20
31967;DHT22;18496;52.042;6.812;2023-07-13T13:06:44;22.30;94.00
31967;DHT22;18496;52.042;6.812;2023-07-13T13:08:50;22.20;93.80
31967;DHT22;18496;52.042;6.812;2023-07-13T13:10:54;22.10;94.50
31967;DHT22;18496;52.042;6.812;2023-07-13T13:12:58;22.20;94.70
31967;DHT22;18496;52.042;6.812;2023-07-13T13:15:02;22.20;95.20
31967;DHT22;18496;52.042;6.812;2023-07-13T13:17:22;22.40;95.20
31967;DHT22;18496;52.042;6.812;2023-07-13T13:19:28;22.50;94.10
31967;DHT22;18496;52.042;6.812;2023-07-13T13:21:32;22.70;93.90
31967;DHT22;18496;52.042;6.812;2023-07-13T13:23:36;22.90;93.10
31967;DHT22;18496;52.042;6.812;2023-07-13T13:25:40;23.00;92.60
31967;DHT22;18496;52.042;6.812;2023-07-13T13:27:44;23.10;92.40
31967;DHT22;18496;52.042;6.812;2023-07-13T13:29:52;23.10;92.30
31967;DHT22;18496;52.042;6.812;2023-07-13T13:31:56;23.20;91.70
31967;DHT22;18496;52.042;6.812;2023-07-13T13:34:00;23.10;92.00
31967;DHT22;18496;52.042;6.812;2023-07-13T13:36:04;23.20;92.30
31967;DHT22;18496;52.042;6.812;2023-07-13T13:40:22;23.20;91.80
31967;DHT22;18496;52.042;6.812;2023-07-13T13:42:26;23.30;91.70
31967;DHT22;18496;52.042;6.812;2023-07-13T13:44:32;23.30;91.90